sensor_id;sensor_type;location;lat;lon;timestamp;temperature;humidity
52125;DHT22;38119;52.710;6.398;2023-06-14T00:01:41;19.20;56.50
52125;DHT22;38119;52.710;6.398;2023-06-14T00:04:11;19.20;56.60
52125;DHT22;38119;52.710;6.398;2023-06-14T00:06:38;19.10;56.70
52125;DHT22;38119;52.710;6.398;2023-06-14T00:09:04;19.10;56.90
52125;DHT22;38119;52.710;6.398;2023-06-14T00:11:31;19.00;57.10
52125;DHT22;38119;52.710;6.398;2023-06-14T00:13:57;19.00;57.00
52125;DHT22;38119;52.710;6.398;2023-06-14T00:16:23;19.00;57.20
52125;DHT22;38119;52.710;6.398;2023-06-14T00:18:48;18.90;57.10
52125;DHT22;38119;52.710;6.398;2023-06-14T00:21:14;18.90;57.30
52125;DHT22;38119;52.710;6.398;2023-06-14T00:23:40;18.90;57.40
52125;DHT22;38119;52.710;6.398;2023-06-14T00:26:06;18.80;57.40
52125;DHT22;38119;52.710;6.398;2023-06-14T00:28:31;18.80;57.40
52125;DHT22;38119;52.710;6.398;2023-06-14T00:30:57;18.80;57.50
52125;DHT22;38119;52.710;6.398;2023-06-14T00:33:22;18.70;57.50
52125;DHT22;38119;52.710;6.398;2023-06-14T00:35:48;18.70;57.70
52125;DHT22;38119;52.710;6.398;2023-06-14T00:38:13;18.70;57.80
52125;DHT22;38119;52.710;6.398;2023-06-14T00:40:39;18.60;57.90
52125;DHT22;38119;52.710;6.398;2023-06-14T00:43:05;18.60;58.00
52125;DHT22;38119;52.710;6.398;2023-06-14T00:45:31;18.60;58.10
52125;DHT22;38119;52.710;6.398;2023-06-14T00:48:01;18.50;58.20
52125;DHT22;38119;52.710;6.398;2023-06-14T00:50:28;18.50;58.40
52125;DHT22;38119;52.710;6.398;2023-06-14T00:52:55;18.40;58.50
52125;DHT22;38119;52.710;6.398;2023-06-14T00:55:21;18.40;58.60
52125;DHT22;38119;52.710;6.398;2023-06-14T00:57:48;18.40;58.80
52125;DHT22;38119;52.710;6.398;2023-06-14T01:00:15;18.30;58.80
52125;DHT22;38119;52.710;6.398;2023-06-14T01:02:40;18.30;58.90
52125;DHT22;38119;52.710;6.398;2023-06-14T01:05:08;18.30;59.00
52125;DHT22;38119;52.710;6.398;2023-06-14T01:15:46;18.10;59.50
52125;DHT22;38119;52.710;6.398;2023-06-14T01:18:12;18.10;59.60
52125;DHT22;38119;52.710;6.398;2023-06-14T01:20:45;18.10;59.80
52125;DHT22;38119;52.710;6.398;2023-06-14T01:23:18;18.00;60.00
52125;DHT22;38119;52.710;6.398;2023-06-14T01:25:43;18.00;60.10
52125;DHT22;38119;52.710;6.398;2023-06-14T01:28:10;17.90;60.30
52125;DHT22;38119;52.710;6.398;2023-06-14T01:30:38;17.90;60.50
52125;DHT22;38119;52.710;6.398;2023-06-14T01:33:13;17.90;60.60
52125;DHT22;38119;52.710;6.398;2023-06-14T01:35:44;17.80;60.70
52125;DHT22;38119;52.710;6.398;2023-06-14T01:38:10;17.80;60.90
52125;DHT22;38119;52.710;6.398;2023-06-14T01:40:38;17.80;61.10
52125;DHT22;38119;52.710;6.398;2023-06-14T01:43:05;17.80;61.20
52125;DHT22;38119;52.710;6.398;2023-06-14T01:45:31;17.70;61.40
52125;DHT22;38119;52.710;6.398;2023-06-14T01:47:58;17.70;61.50
52125;DHT22;38119;52.710;6.398;2023-06-14T01:50:23;17.70;61.70
52125;DHT22;38119;52.710;6.398;2023-06-14T01:52:53;17.60;61.80
52125;DHT22;38119;52.710;6.398;2023-06-14T01:55:18;17.60;62.00
52125;DHT22;38119;52.710;6.398;2023-06-14T01:57:44;17.60;62.20
52125;DHT22;38119;52.710;6.398;2023-06-14T02:00:10;17.50;62.40
52125;DHT22;38119;52.710;6.398;2023-06-14T02:02:38;17.50;62.50
52125;DHT22;38119;52.710;6.398;2023-06-14T02:05:04;17.50;62.70
52125;DHT22;38119;52.710;6.398;2023-06-14T02:07:30;17.40;62.80
52125;DHT22;38119;52.710;6.398;2023-06-14T02:09:55;17.40;63.00
52125;DHT22;38119;52.710;6.398;2023-06-14T02:12:21;17.40;63.10
52125;DHT22;38119;52.710;6.398;2023-06-14T02:14:46;17.40;63.40
52125;DHT22;38119;52.710;6.398;2023-06-14T02:17:12;17.30;63.60
52125;DHT22;38119;52.710;6.398;2023-06-14T02:19:37;17.30;63.70
52125;DHT22;38119;52.710;6.398;2023-06-14T02:22:04;17.30;63.90
52125;DHT22;38119;52.710;6.398;2023-06-14T02:24:29;17.20;64.10
52125;DHT22;38119;52.710;6.398;2023-06-14T02:26:55;17.20;64.30
52125;DHT22;38119;52.710;6.398;2023-06-14T02:29:21;17.20;64.50
52125;DHT22;38119;52.710;6.398;2023-06-14T02:31:46;17.20;64.60
52125;DHT22;38119;52.710;6.398;2023-06-14T02:34:14;17.20;65.40
52125;DHT22;38119;52.710;6.398;2023-06-14T02:36:42;17.10;65.00
52125;DHT22;38119;52.710;6.398;2023-06-14T02:39:08;17.10;65.20
52125;DHT22;38119;52.710;6.398;2023-06-14T02:41:37;17.00;65.30
52125;DHT22;38119;52.710;6.398;2023-06-14T02:44:03;17.00;65.50
52125;DHT22;38119;52.710;6.398;2023-06-14T02:46:29;17.00;65.70
52125;DHT22;38119;52.710;6.398;2023-06-14T02:48:54;16.90;65.80
52125;DHT22;38119;52.710;6.398;2023-06-14T02:51:20;16.90;66.10
52125;DHT22;38119;52.710;6.398;2023-06-14T02:53:45;16.90;66.30
52125;DHT22;38119;52.710;6.398;2023-06-14T02:56:11;16.90;66.40
52125;DHT22;38119;52.710;6.398;2023-06-14T02:58:38;16.90;66.60
52125;DHT22;38119;52.710;6.398;2023-06-14T03:01:05;16.80;66.80
52125;DHT22;38119;52.710;6.398;2023-06-14T03:03:33;16.80;67.00
52125;DHT22;38119;52.710;6.398;2023-06-14T03:05:59;16.70;67.10
52125;DHT22;38119;52.710;6.398;2023-06-14T03:08:30;16.70;67.30
52125;DHT22;38119;52.710;6.398;2023-06-14T03:11:04;16.70;67.50
52125;DHT22;38119;52.710;6.398;2023-06-14T03:13:34;16.70;67.70
52125;DHT22;38119;52.710;6.398;2023-06-14T03:16:00;16.70;67.80
52125;DHT22;38119;52.710;6.398;2023-06-14T03:18:31;16.70;68.10
52125;DHT22;38119;52.710;6.398;2023-06-14T03:21:01;16.60;68.20
52125;DHT22;38119;52.710;6.398;2023-06-14T03:23:27;16.60;68.40
52125;DHT22;38119;52.710;6.398;2023-06-14T03:25:52;16.60;68.50
52125;DHT22;38119;52.710;6.398;2023-06-14T03:28:18;16.60;68.60
52125;DHT22;38119;52.710;6.398;2023-06-14T03:30:44;16.50;68.90
52125;DHT22;38119;52.710;6.398;2023-06-14T03:33:09;16.60;69.00
52125;DHT22;38119;52.710;6.398;2023-06-14T03:35:36;16.50;69.20
52125;DHT22;38119;52.710;6.398;2023-06-14T03:38:01;16.50;69.30
52125;DHT22;38119;52.710;6.398;2023-06-14T03:40:29;16.50;69.40
52125;DHT22;38119;52.710;6.398;2023-06-14T03:42:54;16.40;70.10
52125;DHT22;38119;52.710;6.398;2023-06-14T03:45:21;16.50;69.70
52125;DHT22;38119;52.710;6.398;2023-06-14T03:47:46;16.40;69.90
52125;DHT22;38119;52.710;6.398;2023-06-14T03:50:12;16.40;70.00
52125;DHT22;38119;52.710;6.398;2023-06-14T03:52:38;16.40;70.20
52125;DHT22;38119;52.710;6.398;2023-06-14T03:55:04;16.40;70.50
52125;DHT22;38119;52.710;6.398;2023-06-14T03:57:30;16.40;70.60
52125;DHT22;38119;52.710;6.398;2023-06-14T03:59:56;16.40;70.60
52125;DHT22;38119;52.710;6.398;2023-06-14T04:02:22;16.40;70.80
52125;DHT22;38119;52.710;6.398;2023-06-14T04:04:48;16.40;71.00
52125;DHT22;38119;52.710;6.398;2023-06-14T04:07:14;16.40;71.10
52125;DHT22;38119;52.710;6.398;2023-06-14T04:09:41;16.40;71.30
52125;DHT22;38119;52.710;6.398;2023-06-14T04:12:07;16.40;71.40
52125;DHT22;38119;52.710;6.398;2023-06-14T04:14:37;16.40;71.60
52125;DHT22;38119;52.710;6.398;2023-06-14T04:17:03;16.30;71.60
52125;DHT22;38119;52.710;6.398;2023-06-14T04:19:28;16.40;71.80
52125;DHT22;38119;52.710;6.398;2023-06-14T04:21:54;16.40;72.00
52125;DHT22;38119;52.710;6.398;2023-06-14T04:24:20;16.40;72.10
52125;DHT22;38119;52.710;6.398;2023-06-14T04:26:46;16.40;72.20
52125;DHT22;38119;52.710;6.398;2023-06-14T04:29:14;16.40;72.40
52125;DHT22;38119;52.710;6.398;2023-06-14T04:31:42;16.40;72.60
52125;DHT22;38119;52.710;6.398;2023-06-14T04:34:07;16.40;72.80
52125;DHT22;38119;52.710;6.398;2023-06-14T04:36:34;16.40;72.80
52125;DHT22;38119;52.710;6.398;2023-06-14T04:39:05;16.40;73.00
52125;DHT22;38119;52.710;6.398;2023-06-14T04:41:31;16.40;73.10
52125;DHT22;38119;52.710;6.398;2023-06-14T04:44:00;16.60;73.30
52125;DHT22;38119;52.710;6.398;2023-06-14T04:46:29;16.40;73.40
52125;DHT22;38119;52.710;6.398;2023-06-14T04:48:55;16.40;73.50
52125;DHT22;38119;52.710;6.398;2023-06-14T04:51:22;16.40;73.80
52125;DHT22;38119;52.710;6.398;2023-06-14T04:53:56;16.40;73.90
52125;DHT22;38119;52.710;6.398;2023-06-14T04:56:24;16.40;74.00
52125;DHT22;38119;52.710;6.398;2023-06-14T04:58:51;16.50;74.20
52125;DHT22;38119;52.710;6.398;2023-06-14T05:01:18;16.50;74.10
52125;DHT22;38119;52.710;6.398;2023-06-14T05:03:44;16.50;74.20
52125;DHT22;38119;52.710;6.398;2023-06-14T05:06:11;16.60;74.30
52125;DHT22;38119;52.710;6.398;2023-06-14T05:08:37;16.60;74.50
52125;DHT22;38119;52.710;6.398;2023-06-14T05:11:03;16.50;74.40
52125;DHT22;38119;52.710;6.398;2023-06-14T05:13:28;16.60;74.60
52125;DHT22;38119;52.710;6.398;2023-06-14T05:15:54;16.60;74.40
52125;DHT22;38119;52.710;6.398;2023-06-14T05:18:20;16.60;74.40
52125;DHT22;38119;52.710;6.398;2023-06-14T05:20:45;16.60;74.30
52125;DHT22;38119;52.710;6.398;2023-06-14T05:23:11;16.70;74.30
52125;DHT22;38119;52.710;6.398;2023-06-14T05:25:45;16.70;74.30
52125;DHT22;38119;52.710;6.398;2023-06-14T05:28:11;16.70;74.30
52125;DHT22;38119;52.710;6.398;2023-06-14T05:30:40;16.70;74.20
52125;DHT22;38119;52.710;6.398;2023-06-14T05:33:06;16.70;74.40
52125;DHT22;38119;52.710;6.398;2023-06-14T05:35:31;16.80;74.40
52125;DHT22;38119;52.710;6.398;2023-06-14T05:37:57;16.80;74.40
52125;DHT22;38119;52.710;6.398;2023-06-14T05:40:22;16.80;74.40
52125;DHT22;38119;52.710;6.398;2023-06-14T05:42:48;16.90;74.40
52125;DHT22;38119;52.710;6.398;2023-06-14T05:45:14;16.80;74.40
52125;DHT22;38119;52.710;6.398;2023-06-14T05:47:41;16.90;74.30
52125;DHT22;38119;52.710;6.398;2023-06-14T05:50:07;16.90;74.40
52125;DHT22;38119;52.710;6.398;2023-06-14T05:52:34;17.00;74.40
52125;DHT22;38119;52.710;6.398;2023-06-14T05:54:59;17.10;74.50
52125;DHT22;38119;52.710;6.398;2023-06-14T05:57:25;17.10;74.40
52125;DHT22;38119;52.710;6.398;2023-06-14T05:59:51;17.10;74.40
52125;DHT22;38119;52.710;6.398;2023-06-14T06:02:17;17.10;74.20
52125;DHT22;38119;52.710;6.398;2023-06-14T06:04:42;17.10;74.10
52125;DHT22;38119;52.710;6.398;2023-06-14T06:07:08;17.20;74.10
52125;DHT22;38119;52.710;6.398;2023-06-14T06:09:33;17.20;74.00
52125;DHT22;38119;52.710;6.398;2023-06-14T06:11:59;17.20;73.80
52125;DHT22;38119;52.710;6.398;2023-06-14T06:14:25;17.30;73.80
52125;DHT22;38119;52.710;6.398;2023-06-14T06:16:50;17.30;73.70
52125;DHT22;38119;52.710;6.398;2023-06-14T06:19:18;17.30;73.60
52125;DHT22;38119;52.710;6.398;2023-06-14T06:21:43;17.40;73.60
52125;DHT22;38119;52.710;6.398;2023-06-14T06:24:09;17.40;73.60
52125;DHT22;38119;52.710;6.398;2023-06-14T06:26:35;17.50;73.50
52125;DHT22;38119;52.710;6.398;2023-06-14T06:29:00;17.50;73.40
52125;DHT22;38119;52.710;6.398;2023-06-14T06:31:26;17.50;73.20
52125;DHT22;38119;52.710;6.398;2023-06-14T06:33:55;17.50;73.10
52125;DHT22;38119;52.710;6.398;2023-06-14T06:36:21;17.60;72.90
52125;DHT22;38119;52.710;6.398;2023-06-14T06:38:47;17.60;72.80
52125;DHT22;38119;52.710;6.398;2023-06-14T06:41:13;17.70;72.50
52125;DHT22;38119;52.710;6.398;2023-06-14T06:43:39;17.70;72.50
52125;DHT22;38119;52.710;6.398;2023-06-14T06:46:04;17.80;72.40
52125;DHT22;38119;52.710;6.398;2023-06-14T06:48:30;17.80;72.40
52125;DHT22;38119;52.710;6.398;2023-06-14T06:50:56;17.90;72.30
52125;DHT22;38119;52.710;6.398;2023-06-14T06:53:21;17.90;72.10
52125;DHT22;38119;52.710;6.398;2023-06-14T06:55:48;17.90;71.90
52125;DHT22;38119;52.710;6.398;2023-06-14T06:58:13;18.00;71.80
52125;DHT22;38119;52.710;6.398;2023-06-14T07:00:39;18.10;71.70
52125;DHT22;38119;52.710;6.398;2023-06-14T07:03:05;18.20;71.60
52125;DHT22;38119;52.710;6.398;2023-06-14T07:05:31;18.20;71.30
52125;DHT22;38119;52.710;6.398;2023-06-14T07:07:57;18.30;71.10
52125;DHT22;38119;52.710;6.398;2023-06-14T07:10:23;18.40;71.00
52125;DHT22;38119;52.710;6.398;2023-06-14T07:12:50;18.40;70.50
52125;DHT22;38119;52.710;6.398;2023-06-14T07:15:16;18.50;70.20
52125;DHT22;38119;52.710;6.398;2023-06-14T07:17:41;18.50;70.00
52125;DHT22;38119;52.710;6.398;2023-06-14T07:20:08;18.50;70.10
52125;DHT22;38119;52.710;6.398;2023-06-14T07:22:41;18.60;70.00
52125;DHT22;38119;52.710;6.398;2023-06-14T07:25:11;18.70;69.70
52125;DHT22;38119;52.710;6.398;2023-06-14T07:27:43;18.70;69.50
52125;DHT22;38119;52.710;6.398;2023-06-14T07:30:09;18.70;69.50
52125;DHT22;38119;52.710;6.398;2023-06-14T07:32:36;18.80;69.70
52125;DHT22;38119;52.710;6.398;2023-06-14T07:35:01;18.80;69.50
52125;DHT22;38119;52.710;6.398;2023-06-14T07:37:28;18.90;69.40
52125;DHT22;38119;52.710;6.398;2023-06-14T07:39:54;18.90;69.10
52125;DHT22;38119;52.710;6.398;2023-06-14T07:42:19;19.00;69.30
52125;DHT22;38119;52.710;6.398;2023-06-14T07:44:45;19.00;69.10
52125;DHT22;38119;52.710;6.398;2023-06-14T07:47:10;19.10;69.20
52125;DHT22;38119;52.710;6.398;2023-06-14T07:49:36;19.10;69.10
52125;DHT22;38119;52.710;6.398;2023-06-14T07:52:03;19.20;68.90
52125;DHT22;38119;52.710;6.398;2023-06-14T07:54:28;19.30;68.70
52125;DHT22;38119;52.710;6.398;2023-06-14T07:56:55;19.30;68.60
52125;DHT22;38119;52.710;6.398;2023-06-14T07:59:21;19.50;68.30
52125;DHT22;38119;52.710;6.398;2023-06-14T08:01:47;19.50;67.80
52125;DHT22;38119;52.710;6.398;2023-06-14T08:04:16;19.60;67.50
52125;DHT22;38119;52.710;6.398;2023-06-14T08:06:42;19.70;67.40
52125;DHT22;38119;52.710;6.398;2023-06-14T08:09:12;19.70;67.10
52125;DHT22;38119;52.710;6.398;2023-06-14T08:11:38;19.80;66.40
52125;DHT22;38119;52.710;6.398;2023-06-14T08:14:03;20.00;66.60
52125;DHT22;38119;52.710;6.398;2023-06-14T08:16:29;20.10;66.40
52125;DHT22;38119;52.710;6.398;2023-06-14T08:18:55;20.20;66.20
52125;DHT22;38119;52.710;6.398;2023-06-14T08:21:21;20.40;66.30
52125;DHT22;38119;52.710;6.398;2023-06-14T08:23:47;20.70;66.50
52125;DHT22;38119;52.710;6.398;2023-06-14T08:26:13;20.90;66.30
52125;DHT22;38119;52.710;6.398;2023-06-14T08:28:38;21.20;65.40
52125;DHT22;38119;52.710;6.398;2023-06-14T08:31:04;21.50;65.40
52125;DHT22;38119;52.710;6.398;2023-06-14T08:33:30;21.70;64.80
52125;DHT22;38119;52.710;6.398;2023-06-14T08:35:59;22.10;64.60
52125;DHT22;38119;52.710;6.398;2023-06-14T08:38:25;22.30;63.70
52125;DHT22;38119;52.710;6.398;2023-06-14T08:40:52;22.50;63.00
52125;DHT22;38119;52.710;6.398;2023-06-14T08:43:22;22.70;61.40
52125;DHT22;38119;52.710;6.398;2023-06-14T08:45:48;22.90;59.50
52125;DHT22;38119;52.710;6.398;2023-06-14T08:48:19;23.00;60.30
52125;DHT22;38119;52.710;6.398;2023-06-14T08:50:47;23.30;59.60
52125;DHT22;38119;52.710;6.398;2023-06-14T08:53:14;23.40;59.30
52125;DHT22;38119;52.710;6.398;2023-06-14T08:55:41;23.50;58.20
52125;DHT22;38119;52.710;6.398;2023-06-14T08:58:08;23.80;58.40
52125;DHT22;38119;52.710;6.398;2023-06-14T09:00:35;23.90;58.70
52125;DHT22;38119;52.710;6.398;2023-06-14T09:03:03;24.10;58.10
52125;DHT22;38119;52.710;6.398;2023-06-14T09:05:28;24.30;58.00
52125;DHT22;38119;52.710;6.398;2023-06-14T09:07:54;24.60;58.00
52125;DHT22;38119;52.710;6.398;2023-06-14T09:10:21;24.70;56.50
52125;DHT22;38119;52.710;6.398;2023-06-14T09:12:46;24.80;55.90
52125;DHT22;38119;52.710;6.398;2023-06-14T09:15:12;24.90;55.20
52125;DHT22;38119;52.710;6.398;2023-06-14T09:17:39;25.00;54.40
52125;DHT22;38119;52.710;6.398;2023-06-14T09:20:06;25.00;54.60
52125;DHT22;38119;52.710;6.398;2023-06-14T09:22:35;25.10;54.50
52125;DHT22;38119;52.710;6.398;2023-06-14T09:25:01;25.20;54.30
52125;DHT22;38119;52.710;6.398;2023-06-14T09:27:27;25.30;54.10
52125;DHT22;38119;52.710;6.398;2023-06-14T09:29:53;25.50;53.90
52125;DHT22;38119;52.710;6.398;2023-06-14T09:32:22;25.60;53.60
52125;DHT22;38119;52.710;6.398;2023-06-14T09:34:48;25.70;53.40
52125;DHT22;38119;52.710;6.398;2023-06-14T09:37:34;25.90;53.20
52125;DHT22;38119;52.710;6.398;2023-06-14T09:40:01;26.10;51.50
52125;DHT22;38119;52.710;6.398;2023-06-14T09:42:26;26.10;52.20
52125;DHT22;38119;52.710;6.398;2023-06-14T09:44:54;26.30;51.70
52125;DHT22;38119;52.710;6.398;2023-06-14T09:47:21;26.30;51.50
52125;DHT22;38119;52.710;6.398;2023-06-14T09:49:48;26.30;51.40
52125;DHT22;38119;52.710;6.398;2023-06-14T09:52:18;26.40;51.40
52125;DHT22;38119;52.710;6.398;2023-06-14T09:54:45;26.50;50.40
52125;DHT22;38119;52.710;6.398;2023-06-14T09:57:16;26.50;50.30
52125;DHT22;38119;52.710;6.398;2023-06-14T09:59:44;26.60;50.40
52125;DHT22;38119;52.710;6.398;2023-06-14T10:02:36;26.70;50.00
52125;DHT22;38119;52.710;6.398;2023-06-14T10:07:42;26.60;48.60
52125;DHT22;38119;52.710;6.398;2023-06-14T10:10:10;26.60;48.70
52125;DHT22;38119;52.710;6.398;2023-06-14T10:12:36;26.60;48.90
52125;DHT22;38119;52.710;6.398;2023-06-14T10:15:03;26.70;49.10
52125;DHT22;38119;52.710;6.398;2023-06-14T10:17:42;26.80;49.10
52125;DHT22;38119;52.710;6.398;2023-06-14T10:20:18;27.00;48.20
52125;DHT22;38119;52.710;6.398;2023-06-14T10:22:49;27.10;48.00
52125;DHT22;38119;52.710;6.398;2023-06-14T10:25:29;27.30;47.90
52125;DHT22;38119;52.710;6.398;2023-06-14T10:28:17;27.40;47.90
52125;DHT22;38119;52.710;6.398;2023-06-14T10:33:36;27.60;47.00
52125;DHT22;38119;52.710;6.398;2023-06-14T10:36:24;27.70;46.50
52125;DHT22;38119;52.710;6.398;2023-06-14T10:39:06;27.60;46.80
52125;DHT22;38119;52.710;6.398;2023-06-14T10:41:37;27.70;46.00
52125;DHT22;38119;52.710;6.398;2023-06-14T10:46:38;27.80;45.50
52125;DHT22;38119;52.710;6.398;2023-06-14T10:49:04;27.80;46.40
52125;DHT22;38119;52.710;6.398;2023-06-14T10:51:38;27.90;46.30
52125;DHT22;38119;52.710;6.398;2023-06-14T10:54:12;28.00;46.20
52125;DHT22;38119;52.710;6.398;2023-06-14T10:56:48;28.00;46.70
52125;DHT22;38119;52.710;6.398;2023-06-14T10:59:15;28.20;45.70
52125;DHT22;38119;52.710;6.398;2023-06-14T11:04:51;28.30;45.60
52125;DHT22;38119;52.710;6.398;2023-06-14T11:12:52;28.30;44.40
52125;DHT22;38119;52.710;6.398;2023-06-14T11:15:20;28.40;44.80
52125;DHT22;38119;52.710;6.398;2023-06-14T11:17:52;28.40;45.30
52125;DHT22;38119;52.710;6.398;2023-06-14T11:20:25;28.50;45.40
52125;DHT22;38119;52.710;6.398;2023-06-14T11:22:51;28.70;45.50
52125;DHT22;38119;52.710;6.398;2023-06-14T11:25:17;28.80;45.00
52125;DHT22;38119;52.710;6.398;2023-06-14T11:27:44;28.90;44.90
52125;DHT22;38119;52.710;6.398;2023-06-14T11:30:10;28.80;44.50
52125;DHT22;38119;52.710;6.398;2023-06-14T11:32:36;28.90;44.50
52125;DHT22;38119;52.710;6.398;2023-06-14T11:35:03;28.80;43.80
52125;DHT22;38119;52.710;6.398;2023-06-14T11:37:30;28.90;43.90
52125;DHT22;38119;52.710;6.398;2023-06-14T11:39:59;28.80;43.50
52125;DHT22;38119;52.710;6.398;2023-06-14T11:42:28;28.70;43.90
52125;DHT22;38119;52.710;6.398;2023-06-14T11:44:54;28.80;44.00
52125;DHT22;38119;52.710;6.398;2023-06-14T11:47:20;28.90;44.10
52125;DHT22;38119;52.710;6.398;2023-06-14T11:49:47;29.00;43.80
52125;DHT22;38119;52.710;6.398;2023-06-14T11:52:13;29.00;43.60
52125;DHT22;38119;52.710;6.398;2023-06-14T11:54:39;29.00;43.70
52125;DHT22;38119;52.710;6.398;2023-06-14T11:57:07;29.00;43.80
52125;DHT22;38119;52.710;6.398;2023-06-14T11:59:43;29.00;44.30
52125;DHT22;38119;52.710;6.398;2023-06-14T12:02:13;29.10;43.90
52125;DHT22;38119;52.710;6.398;2023-06-14T12:04:41;29.10;44.20
52125;DHT22;38119;52.710;6.398;2023-06-14T12:07:14;29.10;44.20
52125;DHT22;38119;52.710;6.398;2023-06-14T12:12:20;29.30;44.00
52125;DHT22;38119;52.710;6.398;2023-06-14T12:14:47;29.20;44.00
52125;DHT22;38119;52.710;6.398;2023-06-14T12:17:13;29.30;43.80
52125;DHT22;38119;52.710;6.398;2023-06-14T12:19:43;29.20;44.30
52125;DHT22;38119;52.710;6.398;2023-06-14T12:22:13;29.30;44.30
52125;DHT22;38119;52.710;6.398;2023-06-14T12:24:39;29.30;44.20
52125;DHT22;38119;52.710;6.398;2023-06-14T12:27:08;29.40;44.20
52125;DHT22;38119;52.710;6.398;2023-06-14T12:29:33;29.40;43.80
52125;DHT22;38119;52.710;6.398;2023-06-14T12:31:59;29.40;44.00
52125;DHT22;38119;52.710;6.398;2023-06-14T12:34:25;29.50;44.10
52125;DHT22;38119;52.710;6.398;2023-06-14T12:36:53;29.40;44.60
52125;DHT22;38119;52.710;6.398;2023-06-14T12:39:19;29.40;44.40
52125;DHT22;38119;52.710;6.398;2023-06-14T12:41:45;29.40;44.20
52125;DHT22;38119;52.710;6.398;2023-06-14T12:44:11;29.40;44.50
52125;DHT22;38119;52.710;6.398;2023-06-14T12:46:37;29.40;44.50
52125;DHT22;38119;52.710;6.398;2023-06-14T12:49:05;29.30;44.60
52125;DHT22;38119;52.710;6.398;2023-06-14T12:51:32;29.30;45.10
52125;DHT22;38119;52.710;6.398;2023-06-14T12:53:57;29.30;45.00
52125;DHT22;38119;52.710;6.398;2023-06-14T12:56:23;29.30;45.10
52125;DHT22;38119;52.710;6.398;2023-06-14T12:58:49;29.40;45.40
52125;DHT22;38119;52.710;6.398;2023-06-14T13:01:14;29.40;45.00
52125;DHT22;38119;52.710;6.398;2023-06-14T13:03:40;29.40;44.70
52125;DHT22;38119;52.710;6.398;2023-06-14T13:06:05;29.40;44.50
52125;DHT22;38119;52.710;6.398;2023-06-14T13:08:31;29.40;44.70
52125;DHT22;38119;52.710;6.398;2023-06-14T13:10:57;29.50;44.80
52125;DHT22;38119;52.710;6.398;2023-06-14T13:13:23;29.60;44.60
52125;DHT22;38119;52.710;6.398;2023-06-14T13:15:49;29.60;44.30
52125;DHT22;38119;52.710;6.398;2023-06-14T13:18:15;29.70;43.90
52125;DHT22;38119;52.710;6.398;2023-06-14T13:20:41;29.80;44.20
52125;DHT22;38119;52.710;6.398;2023-06-14T13:23:08;29.80;44.10
52125;DHT22;38119;52.710;6.398;2023-06-14T13:25:35;29.80;44.20
52125;DHT22;38119;52.710;6.398;2023-06-14T13:28:02;29.80;44.30
52125;DHT22;38119;52.710;6.398;2023-06-14T13:30:27;29.80;44.60
52125;DHT22;38119;52.710;6.398;2023-06-14T13:32:53;29.80;44.40
52125;DHT22;38119;52.710;6.398;2023-06-14T13:35:19;29.70;43.90
52125;DHT22;38119;52.710;6.398;2023-06-14T13:37:45;29.70;43.90
52125;DHT22;38119;52.710;6.398;2023-06-14T13:40:11;29.60;44.10
52125;DHT22;38119;52.710;6.398;2023-06-14T13:42:37;29.60;44.10
52125;DHT22;38119;52.710;6.398;2023-06-14T13:45:03;29.70;44.20
52125;DHT22;38119;52.710;6.398;2023-06-14T13:47:30;29.70;44.40
52125;DHT22;38119;52.710;6.398;2023-06-14T13:49:56;29.70;44.20
52125;DHT22;38119;52.710;6.398;2023-06-14T13:52:22;29.70;44.10
52125;DHT22;38119;52.710;6.398;2023-06-14T13:54:47;29.70;43.60
52125;DHT22;38119;52.710;6.398;2023-06-14T13:57:13;29.60;43.90
52125;DHT22;38119;52.710;6.398;2023-06-14T13:59:40;29.60;44.40
52125;DHT22;38119;52.710;6.398;2023-06-14T14:02:06;29.60;44.60
52125;DHT22;38119;52.710;6.398;2023-06-14T14:04:33;29.70;44.90
52125;DHT22;38119;52.710;6.398;2023-06-14T14:06:59;29.60;44.20
52125;DHT22;38119;52.710;6.398;2023-06-14T14:09:25;29.70;44.30
52125;DHT22;38119;52.710;6.398;2023-06-14T14:11:51;29.70;44.20
52125;DHT22;38119;52.710;6.398;2023-06-14T14:14:16;29.70;44.00
52125;DHT22;38119;52.710;6.398;2023-06-14T14:16:42;29.70;44.00
52125;DHT22;38119;52.710;6.398;2023-06-14T14:19:07;29.60;43.90
52125;DHT22;38119;52.710;6.398;2023-06-14T14:21:33;29.50;44.10
52125;DHT22;38119;52.710;6.398;2023-06-14T14:23:59;29.40;44.90
52125;DHT22;38119;52.710;6.398;2023-06-14T14:26:26;29.40;44.70
52125;DHT22;38119;52.710;6.398;2023-06-14T14:28:52;29.50;45.00
52125;DHT22;38119;52.710;6.398;2023-06-14T14:31:18;29.50;45.00
52125;DHT22;38119;52.710;6.398;2023-06-14T14:33:43;29.60;45.00
52125;DHT22;38119;52.710;6.398;2023-06-14T14:36:09;29.60;45.00
52125;DHT22;38119;52.710;6.398;2023-06-14T14:38:35;29.70;45.00
52125;DHT22;38119;52.710;6.398;2023-06-14T14:41:00;29.60;44.90
52125;DHT22;38119;52.710;6.398;2023-06-14T14:43:26;29.70;44.80
52125;DHT22;38119;52.710;6.398;2023-06-14T14:45:52;29.60;44.70
52125;DHT22;38119;52.710;6.398;2023-06-14T14:48:18;29.60;44.70
52125;DHT22;38119;52.710;6.398;2023-06-14T14:50:43;29.60;44.60
52125;DHT22;38119;52.710;6.398;2023-06-14T14:53:09;29.60;44.70
52125;DHT22;38119;52.710;6.398;2023-06-14T14:55:35;29.60;44.60
52125;DHT22;38119;52.710;6.398;2023-06-14T14:58:02;29.60;44.70
52125;DHT22;38119;52.710;6.398;2023-06-14T15:00:28;29.70;44.70
52125;DHT22;38119;52.710;6.398;2023-06-14T15:02:54;29.80;44.80
52125;DHT22;38119;52.710;6.398;2023-06-14T15:05:20;29.80;44.60
52125;DHT22;38119;52.710;6.398;2023-06-14T15:07:46;29.60;44.60
52125;DHT22;38119;52.710;6.398;2023-06-14T15:10:11;29.40;44.70
52125;DHT22;38119;52.710;6.398;2023-06-14T15:12:37;29.10;44.70
52125;DHT22;38119;52.710;6.398;2023-06-14T15:15:03;28.90;44.80
52125;DHT22;38119;52.710;6.398;2023-06-14T15:17:29;28.80;45.20
52125;DHT22;38119;52.710;6.398;2023-06-14T15:19:55;28.70;45.10
52125;DHT22;38119;52.710;6.398;2023-06-14T15:22:21;28.70;45.40
52125;DHT22;38119;52.710;6.398;2023-06-14T15:24:46;28.80;45.60
52125;DHT22;38119;52.710;6.398;2023-06-14T15:27:12;28.90;45.80
52125;DHT22;38119;52.710;6.398;2023-06-14T15:29:41;29.00;46.10
52125;DHT22;38119;52.710;6.398;2023-06-14T15:32:08;29.00;45.70
52125;DHT22;38119;52.710;6.398;2023-06-14T15:34:34;29.10;46.10
52125;DHT22;38119;52.710;6.398;2023-06-14T15:37:00;29.10;45.40
52125;DHT22;38119;52.710;6.398;2023-06-14T15:39:28;29.00;45.20
52125;DHT22;38119;52.710;6.398;2023-06-14T15:41:55;29.00;44.80
52125;DHT22;38119;52.710;6.398;2023-06-14T15:44:21;29.00;45.10
52125;DHT22;38119;52.710;6.398;2023-06-14T15:46:47;28.90;44.60
52125;DHT22;38119;52.710;6.398;2023-06-14T15:49:13;28.80;44.70
52125;DHT22;38119;52.710;6.398;2023-06-14T15:51:39;28.70;44.80
52125;DHT22;38119;52.710;6.398;2023-06-14T15:54:04;28.70;44.70
52125;DHT22;38119;52.710;6.398;2023-06-14T15:56:30;28.70;44.80